sensor_id;sensor_type;location;lat;lon;timestamp;P1;durP1;ratioP1;P2;durP2;ratioP2
3849;SDS011;1940;51.052;13.678;2023-06-22T00:10:53;28.03;;;17.03;;
3849;SDS011;1940;51.052;13.678;2023-06-22T00:26:50;19.60;;;12.27;;
3849;SDS011;1940;51.052;13.678;2023-06-22T00:38:58;17.70;;;10.53;;
3849;SDS011;1940;51.052;13.678;2023-06-22T00:41:24;21.97;;;11.83;;
3849;SDS011;1940;51.052;13.678;2023-06-22T00:47:16;32.67;;;17.47;;
3849;SDS011;1940;51.052;13.678;2023-06-22T00:52:58;26.87;;;16.40;;
3849;SDS011;1940;51.052;13.678;2023-06-22T00:55:25;23.97;;;15.23;;
3849;SDS011;1940;51.052;13.678;2023-06-22T01:04:36;18.40;;;12.30;;
3849;SDS011;1940;51.052;13.678;2023-06-22T01:37:03;11.70;;;8.63;;
3849;SDS011;1940;51.052;13.678;2023-06-22T01:39:29;12.27;;;9.20;;
3849;SDS011;1940;51.052;13.678;2023-06-22T01:41:56;11.90;;;8.70;;
3849;SDS011;1940;51.052;13.678;2023-06-22T02:01:25;12.20;;;8.93;;
3849;SDS011;1940;51.052;13.678;2023-06-22T02:04:19;11.37;;;8.60;;
3849;SDS011;1940;51.052;13.678;2023-06-22T02:10:11;14.20;;;9.60;;
3849;SDS011;1940;51.052;13.678;2023-06-22T02:22:22;14.40;;;9.60;;
3849;SDS011;1940;51.052;13.678;2023-06-22T02:28:09;12.53;;;8.57;;
3849;SDS011;1940;51.052;13.678;2023-06-22T02:30:34;14.97;;;10.70;;
3849;SDS011;1940;51.052;13.678;2023-06-22T02:33:00;15.57;;;10.23;;
3849;SDS011;1940;51.052;13.678;2023-06-22T02:35:26;16.63;;;9.50;;
3849;SDS011;1940;51.052;13.678;2023-06-22T02:37:56;14.83;;;9.93;;
3849;SDS011;1940;51.052;13.678;2023-06-22T02:40:22;15.20;;;11.00;;
3849;SDS011;1940;51.052;13.678;2023-06-22T02:42:48;21.70;;;14.80;;
3849;SDS011;1940;51.052;13.678;2023-06-22T02:45:13;36.07;;;20.53;;
3849;SDS011;1940;51.052;13.678;2023-06-22T02:47:39;35.50;;;20.70;;
3849;SDS011;1940;51.052;13.678;2023-06-22T02:50:05;30.20;;;18.33;;
3849;SDS011;1940;51.052;13.678;2023-06-22T02:52:30;23.87;;;13.20;;
3849;SDS011;1940;51.052;13.678;2023-06-22T02:54:56;12.97;;;10.20;;
3849;SDS011;1940;51.052;13.678;2023-06-22T02:57:21;15.13;;;10.33;;
3849;SDS011;1940;51.052;13.678;2023-06-22T02:59:47;13.77;;;9.73;;
3849;SDS011;1940;51.052;13.678;2023-06-22T03:02:12;17.80;;;10.77;;
3849;SDS011;1940;51.052;13.678;2023-06-22T03:04:38;15.07;;;10.00;;
3849;SDS011;1940;51.052;13.678;2023-06-22T03:07:03;13.67;;;9.00;;
3849;SDS011;1940;51.052;13.678;2023-06-22T03:09:29;12.60;;;9.00;;
3849;SDS011;1940;51.052;13.678;2023-06-22T03:11:55;13.63;;;9.27;;
3849;SDS011;1940;51.052;13.678;2023-06-22T03:14:21;12.57;;;8.60;;
3849;SDS011;1940;51.052;13.678;2023-06-22T03:16:46;13.93;;;8.53;;
3849;SDS011;1940;51.052;13.678;2023-06-22T03:19:12;13.70;;;9.00;;
3849;SDS011;1940;51.052;13.678;2023-06-22T03:21:38;16.23;;;9.77;;
3849;SDS011;1940;51.052;13.678;2023-06-22T03:24:05;11.93;;;9.07;;
3849;SDS011;1940;51.052;13.678;2023-06-22T03:26:31;14.10;;;10.00;;
3849;SDS011;1940;51.052;13.678;2023-06-22T03:28:56;14.10;;;10.13;;
3849;SDS011;1940;51.052;13.678;2023-06-22T03:31:22;15.90;;;9.93;;
3849;SDS011;1940;51.052;13.678;2023-06-22T03:33:49;15.80;;;10.20;;
3849;SDS011;1940;51.052;13.678;2023-06-22T03:36:15;12.47;;;9.47;;
3849;SDS011;1940;51.052;13.678;2023-06-22T03:38:44;16.10;;;9.67;;
3849;SDS011;1940;51.052;13.678;2023-06-22T03:41:10;15.33;;;9.63;;
3849;SDS011;1940;51.052;13.678;2023-06-22T03:43:36;12.97;;;9.00;;
3849;SDS011;1940;51.052;13.678;2023-06-22T03:46:01;12.57;;;9.20;;
3849;SDS011;1940;51.052;13.678;2023-06-22T03:48:27;13.63;;;9.17;;
3849;SDS011;1940;51.052;13.678;2023-06-22T03:50:53;13.40;;;8.50;;
3849;SDS011;1940;51.052;13.678;2023-06-22T03:53:18;16.13;;;9.27;;
3849;SDS011;1940;51.052;13.678;2023-06-22T03:55:50;13.00;;;9.00;;
3849;SDS011;1940;51.052;13.678;2023-06-22T03:58:17;12.70;;;9.13;;
3849;SDS011;1940;51.052;13.678;2023-06-22T04:00:46;13.73;;;8.77;;
3849;SDS011;1940;51.052;13.678;2023-06-22T04:03:15;13.50;;;9.40;;
3849;SDS011;1940;51.052;13.678;2023-06-22T04:05:41;12.87;;;9.23;;
3849;SDS011;1940;51.052;13.678;2023-06-22T04:08:07;13.40;;;9.40;;
3849;SDS011;1940;51.052;13.678;2023-06-22T04:10:33;13.43;;;8.37;;
3849;SDS011;1940;51.052;13.678;2023-06-22T04:12:59;13.00;;;8.43;;
3849;SDS011;1940;51.052;13.678;2023-06-22T04:15:25;15.40;;;9.20;;
3849;SDS011;1940;51.052;13.678;2023-06-22T04:17:50;10.30;;;7.90;;
3849;SDS011;1940;51.052;13.678;2023-06-22T04:20:16;12.60;;;8.00;;
3849;SDS011;1940;51.052;13.678;2023-06-22T04:22:41;13.97;;;9.13;;
3849;SDS011;1940;51.052;13.678;2023-06-22T04:25:07;12.67;;;8.30;;
3849;SDS011;1940;51.052;13.678;2023-06-22T04:27:33;13.43;;;8.90;;
3849;SDS011;1940;51.052;13.678;2023-06-22T04:30:05;12.10;;;8.50;;
3849;SDS011;1940;51.052;13.678;2023-06-22T04:32:32;11.80;;;8.90;;
3849;SDS011;1940;51.052;13.678;2023-06-22T04:35:04;12.33;;;9.00;;
3849;SDS011;1940;51.052;13.678;2023-06-22T04:37:31;13.43;;;8.50;;
3849;SDS011;1940;51.052;13.678;2023-06-22T04:39:57;12.80;;;8.67;;
3849;SDS011;1940;51.052;13.678;2023-06-22T04:42:22;24.90;;;9.47;;
3849;SDS011;1940;51.052;13.678;2023-06-22T04:44:48;12.27;;;8.73;;
3849;SDS011;1940;51.052;13.678;2023-06-22T04:47:13;16.17;;;9.13;;
3849;SDS011;1940;51.052;13.678;2023-06-22T04:49:39;12.57;;;9.20;;
3849;SDS011;1940;51.052;13.678;2023-06-22T04:52:08;12.90;;;8.63;;
3849;SDS011;1940;51.052;13.678;2023-06-22T04:54:35;23.63;;;8.70;;
3849;SDS011;1940;51.052;13.678;2023-06-22T04:57:05;11.17;;;8.47;;
3849;SDS011;1940;51.052;13.678;2023-06-22T04:59:35;9.63;;;7.67;;
3849;SDS011;1940;51.052;13.678;2023-06-22T05:02:03;15.40;;;8.73;;
3849;SDS011;1940;51.052;13.678;2023-06-22T05:04:31;14.27;;;8.23;;
3849;SDS011;1940;51.052;13.678;2023-06-22T05:06:56;9.53;;;7.73;;
3849;SDS011;1940;51.052;13.678;2023-06-22T05:09:23;8.93;;;7.57;;
3849;SDS011;1940;51.052;13.678;2023-06-22T05:11:49;12.50;;;7.00;;
3849;SDS011;1940;51.052;13.678;2023-06-22T05:14:15;10.33;;;8.10;;
3849;SDS011;1940;51.052;13.678;2023-06-22T05:16:41;11.30;;;7.80;;
3849;SDS011;1940;51.052;13.678;2023-06-22T05:19:07;12.17;;;7.60;;
3849;SDS011;1940;51.052;13.678;2023-06-22T05:21:34;16.80;;;9.20;;
3849;SDS011;1940;51.052;13.678;2023-06-22T05:23:59;12.77;;;8.37;;
3849;SDS011;1940;51.052;13.678;2023-06-22T05:26:27;11.60;;;8.10;;
3849;SDS011;1940;51.052;13.678;2023-06-22T05:28:57;11.30;;;8.70;;
3849;SDS011;1940;51.052;13.678;2023-06-22T05:31:24;11.40;;;8.30;;
3849;SDS011;1940;51.052;13.678;2023-06-22T05:33:51;13.03;;;9.30;;
3849;SDS011;1940;51.052;13.678;2023-06-22T05:36:17;14.60;;;9.57;;
3849;SDS011;1940;51.052;13.678;2023-06-22T05:38:44;11.83;;;8.60;;
3849;SDS011;1940;51.052;13.678;2023-06-22T05:41:11;10.13;;;8.40;;
3849;SDS011;1940;51.052;13.678;2023-06-22T05:43:36;11.00;;;8.63;;
3849;SDS011;1940;51.052;13.678;2023-06-22T05:46:02;12.83;;;8.13;;
3849;SDS011;1940;51.052;13.678;2023-06-22T05:48:28;11.83;;;8.60;;
3849;SDS011;1940;51.052;13.678;2023-06-22T05:50:54;14.63;;;7.80;;
3849;SDS011;1940;51.052;13.678;2023-06-22T05:53:20;11.07;;;8.33;;
3849;SDS011;1940;51.052;13.678;2023-06-22T05:55:45;10.03;;;8.30;;
3849;SDS011;1940;51.052;13.678;2023-06-22T05:58:11;9.40;;;7.23;;
3849;SDS011;1940;51.052;13.678;2023-06-22T06:00:38;11.73;;;8.93;;
3849;SDS011;1940;51.052;13.678;2023-06-22T06:03:04;12.33;;;7.83;;
3849;SDS011;1940;51.052;13.678;2023-06-22T06:05:30;10.83;;;7.37;;
3849;SDS011;1940;51.052;13.678;2023-06-22T06:07:57;9.77;;;8.30;;
3849;SDS011;1940;51.052;13.678;2023-06-22T06:10:23;15.07;;;8.60;;
3849;SDS011;1940;51.052;13.678;2023-06-22T06:12:48;11.13;;;7.80;;
3849;SDS011;1940;51.052;13.678;2023-06-22T06:15:14;8.57;;;7.47;;
3849;SDS011;1940;51.052;13.678;2023-06-22T06:17:49;14.30;;;7.57;;
3849;SDS011;1940;51.052;13.678;2023-06-22T06:20:18;18.80;;;9.10;;
3849;SDS011;1940;51.052;13.678;2023-06-22T06:22:45;10.13;;;7.60;;
3849;SDS011;1940;51.052;13.678;2023-06-22T06:25:11;15.20;;;8.03;;
3849;SDS011;1940;51.052;13.678;2023-06-22T06:27:41;10.57;;;8.50;;
3849;SDS011;1940;51.052;13.678;2023-06-22T06:30:11;13.13;;;8.83;;
3849;SDS011;1940;51.052;13.678;2023-06-22T06:32:38;25.73;;;8.60;;
3849;SDS011;1940;51.052;13.678;2023-06-22T06:35:07;15.13;;;9.27;;
3849;SDS011;1940;51.052;13.678;2023-06-22T06:37:38;11.70;;;8.70;;
3849;SDS011;1940;51.052;13.678;2023-06-22T06:40:06;17.40;;;8.93;;
3849;SDS011;1940;51.052;13.678;2023-06-22T06:42:45;14.00;;;7.73;;
3849;SDS011;1940;51.052;13.678;2023-06-22T06:45:16;12.37;;;8.40;;
3849;SDS011;1940;51.052;13.678;2023-06-22T06:47:43;11.63;;;8.27;;
3849;SDS011;1940;51.052;13.678;2023-06-22T06:50:10;13.30;;;8.83;;
3849;SDS011;1940;51.052;13.678;2023-06-22T06:52:36;13.10;;;8.20;;
3849;SDS011;1940;51.052;13.678;2023-06-22T06:55:01;11.53;;;8.07;;
3849;SDS011;1940;51.052;13.678;2023-06-22T06:57:29;13.40;;;7.37;;
3849;SDS011;1940;51.052;13.678;2023-06-22T06:59:55;12.20;;;8.03;;
3849;SDS011;1940;51.052;13.678;2023-06-22T07:02:21;15.07;;;8.80;;
3849;SDS011;1940;51.052;13.678;2023-06-22T07:04:47;13.53;;;7.10;;
3849;SDS011;1940;51.052;13.678;2023-06-22T07:07:13;9.93;;;7.57;;
3849;SDS011;1940;51.052;13.678;2023-06-22T07:09:42;8.70;;;7.50;;
3849;SDS011;1940;51.052;13.678;2023-06-22T07:12:07;10.93;;;7.17;;
3849;SDS011;1940;51.052;13.678;2023-06-22T07:14:33;7.73;;;6.90;;
3849;SDS011;1940;51.052;13.678;2023-06-22T07:16:58;12.23;;;7.30;;
3849;SDS011;1940;51.052;13.678;2023-06-22T07:19:27;9.57;;;7.90;;
3849;SDS011;1940;51.052;13.678;2023-06-22T07:21:53;11.10;;;7.80;;
3849;SDS011;1940;51.052;13.678;2023-06-22T07:24:22;10.90;;;8.10;;
3849;SDS011;1940;51.052;13.678;2023-06-22T07:26:49;9.53;;;7.63;;
3849;SDS011;1940;51.052;13.678;2023-06-22T07:29:18;11.63;;;7.77;;
3849;SDS011;1940;51.052;13.678;2023-06-22T07:31:49;8.33;;;7.50;;
3849;SDS011;1940;51.052;13.678;2023-06-22T07:34:16;15.07;;;8.47;;
3849;SDS011;1940;51.052;13.678;2023-06-22T07:36:43;13.10;;;8.13;;
3849;SDS011;1940;51.052;13.678;2023-06-22T07:39:08;9.90;;;8.30;;
3849;SDS011;1940;51.052;13.678;2023-06-22T07:41:34;8.40;;;7.60;;
3849;SDS011;1940;51.052;13.678;2023-06-22T07:43:59;11.50;;;8.37;;
3849;SDS011;1940;51.052;13.678;2023-06-22T07:46:25;9.00;;;7.87;;
3849;SDS011;1940;51.052;13.678;2023-06-22T07:48:50;8.67;;;7.77;;
3849;SDS011;1940;51.052;13.678;2023-06-22T07:51:16;10.27;;;7.83;;
3849;SDS011;1940;51.052;13.678;2023-06-22T07:53:42;9.50;;;7.40;;
3849;SDS011;1940;51.052;13.678;2023-06-22T07:56:12;14.87;;;7.67;;
3849;SDS011;1940;51.052;13.678;2023-06-22T07:58:38;13.10;;;8.70;;
3849;SDS011;1940;51.052;13.678;2023-06-22T08:01:03;10.03;;;7.93;;
3849;SDS011;1940;51.052;13.678;2023-06-22T08:03:29;9.23;;;7.60;;
3849;SDS011;1940;51.052;13.678;2023-06-22T08:05:55;8.13;;;7.07;;
3849;SDS011;1940;51.052;13.678;2023-06-22T08:08:21;8.37;;;7.13;;
3849;SDS011;1940;51.052;13.678;2023-06-22T08:10:46;10.10;;;8.17;;
3849;SDS011;1940;51.052;13.678;2023-06-22T08:13:12;10.13;;;8.00;;
3849;SDS011;1940;51.052;13.678;2023-06-22T08:15:37;9.50;;;7.70;;
3849;SDS011;1940;51.052;13.678;2023-06-22T08:18:03;12.20;;;7.90;;
3849;SDS011;1940;51.052;13.678;2023-06-22T08:20:28;8.33;;;7.40;;
3849;SDS011;1940;51.052;13.678;2023-06-22T08:22:55;8.27;;;7.40;;
3849;SDS011;1940;51.052;13.678;2023-06-22T08:25:22;12.00;;;7.90;;
3849;SDS011;1940;51.052;13.678;2023-06-22T08:27:48;17.27;;;7.07;;
3849;SDS011;1940;51.052;13.678;2023-06-22T08:30:13;9.70;;;6.80;;
3849;SDS011;1940;51.052;13.678;2023-06-22T08:32:40;7.57;;;6.87;;
3849;SDS011;1940;51.052;13.678;2023-06-22T08:35:06;7.23;;;6.43;;
3849;SDS011;1940;51.052;13.678;2023-06-22T08:37:34;7.70;;;6.90;;
3849;SDS011;1940;51.052;13.678;2023-06-22T08:40:00;7.20;;;6.50;;
3849;SDS011;1940;51.052;13.678;2023-06-22T08:42:26;8.83;;;6.60;;
3849;SDS011;1940;51.052;13.678;2023-06-22T08:44:52;7.97;;;6.40;;
3849;SDS011;1940;51.052;13.678;2023-06-22T08:47:18;7.13;;;6.47;;
3849;SDS011;1940;51.052;13.678;2023-06-22T08:49:44;7.93;;;6.50;;
3849;SDS011;1940;51.052;13.678;2023-06-22T08:52:10;7.30;;;6.60;;
3849;SDS011;1940;51.052;13.678;2023-06-22T08:54:35;15.83;;;6.87;;
3849;SDS011;1940;51.052;13.678;2023-06-22T08:57:02;10.50;;;6.07;;
3849;SDS011;1940;51.052;13.678;2023-06-22T08:59:27;8.27;;;6.00;;
3849;SDS011;1940;51.052;13.678;2023-06-22T09:01:53;7.33;;;6.63;;
3849;SDS011;1940;51.052;13.678;2023-06-22T09:04:19;10.77;;;5.73;;
3849;SDS011;1940;51.052;13.678;2023-06-22T09:06:47;9.67;;;6.20;;
3849;SDS011;1940;51.052;13.678;2023-06-22T09:09:13;9.63;;;5.37;;
3849;SDS011;1940;51.052;13.678;2023-06-22T09:11:39;7.53;;;6.47;;
3849;SDS011;1940;51.052;13.678;2023-06-22T09:14:05;7.50;;;6.13;;
3849;SDS011;1940;51.052;13.678;2023-06-22T09:16:31;17.33;;;6.50;;
3849;SDS011;1940;51.052;13.678;2023-06-22T09:18:57;6.30;;;5.60;;
3849;SDS011;1940;51.052;13.678;2023-06-22T09:21:22;8.37;;;5.70;;
3849;SDS011;1940;51.052;13.678;2023-06-22T09:23:48;8.60;;;6.00;;
3849;SDS011;1940;51.052;13.678;2023-06-22T09:26:16;6.67;;;5.40;;
3849;SDS011;1940;51.052;13.678;2023-06-22T09:28:42;9.20;;;5.63;;
3849;SDS011;1940;51.052;13.678;2023-06-22T09:31:08;6.87;;;6.17;;
3849;SDS011;1940;51.052;13.678;2023-06-22T09:33:33;10.57;;;6.10;;
3849;SDS011;1940;51.052;13.678;2023-06-22T09:36:00;6.27;;;5.67;;
3849;SDS011;1940;51.052;13.678;2023-06-22T09:38:25;7.30;;;6.60;;
3849;SDS011;1940;51.052;13.678;2023-06-22T09:40:50;6.60;;;6.00;;
3849;SDS011;1940;51.052;13.678;2023-06-22T09:43:16;7.23;;;6.53;;
3849;SDS011;1940;51.052;13.678;2023-06-22T09:45:42;6.90;;;5.43;;
3849;SDS011;1940;51.052;13.678;2023-06-22T09:48:07;7.27;;;6.30;;
3849;SDS011;1940;51.052;13.678;2023-06-22T09:50:34;9.00;;;6.20;;
3849;SDS011;1940;51.052;13.678;2023-06-22T09:53:00;7.53;;;6.17;;
3849;SDS011;1940;51.052;13.678;2023-06-22T09:55:25;8.40;;;6.50;;
3849;SDS011;1940;51.052;13.678;2023-06-22T09:57:52;7.50;;;6.80;;
3849;SDS011;1940;51.052;13.678;2023-06-22T10:00:17;10.47;;;7.13;;
3849;SDS011;1940;51.052;13.678;2023-06-22T10:02:44;7.17;;;6.47;;
3849;SDS011;1940;51.052;13.678;2023-06-22T10:05:10;7.73;;;6.23;;
3849;SDS011;1940;51.052;13.678;2023-06-22T10:07:36;6.37;;;5.77;;
3849;SDS011;1940;51.052;13.678;2023-06-22T10:10:07;6.50;;;5.90;;
3849;SDS011;1940;51.052;13.678;2023-06-22T10:12:33;7.30;;;5.90;;
3849;SDS011;1940;51.052;13.678;2023-06-22T10:14:59;5.93;;;5.10;;
3849;SDS011;1940;51.052;13.678;2023-06-22T10:17:24;7.40;;;6.10;;
3849;SDS011;1940;51.052;13.678;2023-06-22T10:19:49;6.80;;;6.03;;
3849;SDS011;1940;51.052;13.678;2023-06-22T10:22:15;6.83;;;6.10;;
3849;SDS011;1940;51.052;13.678;2023-06-22T10:24:40;5.60;;;5.10;;
3849;SDS011;1940;51.052;13.678;2023-06-22T10:27:10;6.00;;;5.50;;
3849;SDS011;1940;51.052;13.678;2023-06-22T10:29:35;6.87;;;5.53;;
3849;SDS011;1940;51.052;13.678;2023-06-22T10:32:01;5.80;;;5.03;;
3849;SDS011;1940;51.052;13.678;2023-06-22T10:34:27;6.67;;;5.40;;
3849;SDS011;1940;51.052;13.678;2023-06-22T10:36:52;6.03;;;5.53;;
3849;SDS011;1940;51.052;13.678;2023-06-22T10:39:18;5.93;;;5.43;;
3849;SDS011;1940;51.052;13.678;2023-06-22T10:41:43;6.57;;;5.53;;
3849;SDS011;1940;51.052;13.678;2023-06-22T10:44:09;5.50;;;5.10;;
3849;SDS011;1940;51.052;13.678;2023-06-22T10:46:34;5.70;;;5.20;;
3849;SDS011;1940;51.052;13.678;2023-06-22T10:49:00;5.10;;;4.70;;
3849;SDS011;1940;51.052;13.678;2023-06-22T10:51:25;5.90;;;5.03;;
3849;SDS011;1940;51.052;13.678;2023-06-22T10:53:53;6.00;;;5.50;;
3849;SDS011;1940;51.052;13.678;2023-06-22T10:56:18;10.30;;;6.43;;
3849;SDS011;1940;51.052;13.678;2023-06-22T10:58:44;6.90;;;6.20;;
3849;SDS011;1940;51.052;13.678;2023-06-22T11:01:10;6.97;;;6.27;;
3849;SDS011;1940;51.052;13.678;2023-06-22T11:03:35;8.77;;;6.50;;
3849;SDS011;1940;51.052;13.678;2023-06-22T11:06:01;7.83;;;6.33;;
3849;SDS011;1940;51.052;13.678;2023-06-22T11:08:26;9.33;;;6.63;;
3849;SDS011;1940;51.052;13.678;2023-06-22T11:10:52;8.97;;;7.40;;
3849;SDS011;1940;51.052;13.678;2023-06-22T11:13:18;10.30;;;6.20;;
3849;SDS011;1940;51.052;13.678;2023-06-22T11:15:43;7.90;;;7.10;;
3849;SDS011;1940;51.052;13.678;2023-06-22T11:18:09;23.63;;;7.00;;
3849;SDS011;1940;51.052;13.678;2023-06-22T11:20:34;9.10;;;7.47;;
3849;SDS011;1940;51.052;13.678;2023-06-22T11:23:03;10.73;;;7.57;;
3849;SDS011;1940;51.052;13.678;2023-06-22T11:25:30;8.17;;;7.13;;
3849;SDS011;1940;51.052;13.678;2023-06-22T11:27:56;7.37;;;6.67;;
3849;SDS011;1940;51.052;13.678;2023-06-22T11:30:21;7.60;;;6.30;;
3849;SDS011;1940;51.052;13.678;2023-06-22T11:32:48;15.67;;;7.63;;
3849;SDS011;1940;51.052;13.678;2023-06-22T11:35:13;9.90;;;6.53;;
3849;SDS011;1940;51.052;13.678;2023-06-22T11:37:39;12.43;;;6.57;;
3849;SDS011;1940;51.052;13.678;2023-06-22T11:40:04;7.43;;;6.70;;
3849;SDS011;1940;51.052;13.678;2023-06-22T11:42:33;12.30;;;6.83;;
3849;SDS011;1940;51.052;13.678;2023-06-22T11:44:59;7.90;;;7.10;;
3849;SDS011;1940;51.052;13.678;2023-06-22T11:47:24;9.13;;;7.10;;
3849;SDS011;1940;51.052;13.678;2023-06-22T11:49:50;10.97;;;7.57;;
3849;SDS011;1940;51.052;13.678;2023-06-22T11:52:15;8.70;;;7.40;;
3849;SDS011;1940;51.052;13.678;2023-06-22T11:54:42;8.40;;;7.20;;
3849;SDS011;1940;51.052;13.678;2023-06-22T11:57:08;8.20;;;7.20;;
3849;SDS011;1940;51.052;13.678;2023-06-22T11:59:33;8.17;;;7.37;;
3849;SDS011;1940;51.052;13.678;2023-06-22T12:01:59;8.13;;;6.70;;
3849;SDS011;1940;51.052;13.678;2023-06-22T12:04:25;8.97;;;7.50;;
3849;SDS011;1940;51.052;13.678;2023-06-22T12:06:50;7.70;;;6.93;;
3849;SDS011;1940;51.052;13.678;2023-06-22T12:09:15;9.87;;;7.27;;
3849;SDS011;1940;51.052;13.678;2023-06-22T12:11:41;8.00;;;7.20;;
3849;SDS011;1940;51.052;13.678;2023-06-22T12:14:06;8.07;;;7.33;;
3849;SDS011;1940;51.052;13.678;2023-06-22T12:16:32;7.27;;;6.40;;
3849;SDS011;1940;51.052;13.678;2023-06-22T12:18:57;7.23;;;6.50;;
3849;SDS011;1940;51.052;13.678;2023-06-22T12:21:23;8.33;;;6.93;;
3849;SDS011;1940;51.052;13.678;2023-06-22T12:23:48;7.90;;;6.97;;
3849;SDS011;1940;51.052;13.678;2023-06-22T12:26:14;7.97;;;6.90;;
3849;SDS011;1940;51.052;13.678;2023-06-22T12:28:39;7.90;;;7.10;;
3849;SDS011;1940;51.052;13.678;2023-06-22T12:31:05;11.03;;;6.70;;
3849;SDS011;1940;51.052;13.678;2023-06-22T12:33:30;8.07;;;6.97;;
3849;SDS011;1940;51.052;13.678;2023-06-22T12:35:56;22.40;;;8.00;;
3849;SDS011;1940;51.052;13.678;2023-06-22T12:38:22;7.63;;;6.83;;
3849;SDS011;1940;51.052;13.678;2023-06-22T12:40:49;11.10;;;6.60;;
3849;SDS011;1940;51.052;13.678;2023-06-22T12:43:14;9.27;;;7.20;;
3849;SDS011;1940;51.052;13.678;2023-06-22T12:45:40;7.43;;;6.73;;
3849;SDS011;1940;51.052;13.678;2023-06-22T12:48:05;8.13;;;7.30;;
3849;SDS011;1940;51.052;13.678;2023-06-22T12:50:31;9.60;;;6.20;;
3849;SDS011;1940;51.052;13.678;2023-06-22T12:52:57;7.50;;;6.67;;
3849;SDS011;1940;51.052;13.678;2023-06-22T12:55:22;7.10;;;6.40;;
3849;SDS011;1940;51.052;13.678;2023-06-22T12:57:48;7.47;;;6.67;;
3849;SDS011;1940;51.052;13.678;2023-06-22T13:00:13;12.07;;;6.77;;
3849;SDS011;1940;51.052;13.678;2023-06-22T13:02:39;9.47;;;6.97;;
3849;SDS011;1940;51.052;13.678;2023-06-22T13:05:05;8.57;;;6.83;;
3849;SDS011;1940;51.052;13.678;2023-06-22T13:07:31;10.73;;;6.90;;
3849;SDS011;1940;51.052;13.678;2023-06-22T13:09:56;8.47;;;7.50;;
3849;SDS011;1940;51.052;13.678;2023-06-22T13:12:22;8.20;;;6.50;;
3849;SDS011;1940;51.052;13.678;2023-06-22T13:14:48;8.53;;;7.50;;
3849;SDS011;1940;51.052;13.678;2023-06-22T13:17:13;15.73;;;7.00;;
3849;SDS011;1940;51.052;13.678;2023-06-22T13:19:39;12.60;;;7.00;;
3849;SDS011;1940;51.052;13.678;2023-06-22T13:22:05;8.33;;;7.00;;
3849;SDS011;1940;51.052;13.678;2023-06-22T13:24:50;8.50;;;7.17;;
3849;SDS011;1940;51.052;13.678;2023-06-22T13:27:15;7.63;;;6.83;;
3849;SDS011;1940;51.052;13.678;2023-06-22T13:29:41;6.93;;;6.07;;
3849;SDS011;1940;51.052;13.678;2023-06-22T13:32:06;8.77;;;7.20;;
3849;SDS011;1940;51.052;13.678;2023-06-22T13:34:32;7.90;;;7.10;;
3849;SDS011;1940;51.052;13.678;2023-06-22T13:36:57;10.10;;;7.37;;
3849;SDS011;1940;51.052;13.678;2023-06-22T13:39:23;9.03;;;6.90;;
3849;SDS011;1940;51.052;13.678;2023-06-22T13:41:48;10.60;;;7.50;;
3849;SDS011;1940;51.052;13.678;2023-06-22T13:44:14;8.27;;;7.00;;
3849;SDS011;1940;51.052;13.678;2023-06-22T13:46:39;8.50;;;6.80;;
3849;SDS011;1940;51.052;13.678;2023-06-22T13:49:05;7.60;;;6.30;;
3849;SDS011;1940;51.052;13.678;2023-06-22T13:51:30;7.20;;;6.50;;
3849;SDS011;1940;51.052;13.678;2023-06-22T13:53:56;8.10;;;7.00;;
3849;SDS011;1940;51.052;13.678;2023-06-22T13:56:21;7.90;;;7.10;;
3849;SDS011;1940;51.052;13.678;2023-06-22T13:58:47;13.40;;;7.60;;
3849;SDS011;1940;51.052;13.678;2023-06-22T14:01:12;16.00;;;6.90;;
3849;SDS011;1940;51.052;13.678;2023-06-22T14:03:37;8.27;;;7.00;;
3849;SDS011;1940;51.052;13.678;2023-06-22T14:06:03;8.73;;;6.93;;
3849;SDS011;1940;51.052;13.678;2023-06-22T14:08:29;11.07;;;7.47;;
3849;SDS011;1940;51.052;13.678;2023-06-22T14:10:54;8.60;;;6.97;;
3849;SDS011;1940;51.052;13.678;2023-06-22T14:13:20;10.97;;;8.03;;
3849;SDS011;1940;51.052;13.678;2023-06-22T14:15:45;8.27;;;6.60;;
3849;SDS011;1940;51.052;13.678;2023-06-22T14:18:13;9.00;;;7.07;;
3849;SDS011;1940;51.052;13.678;2023-06-22T14:20:39;9.50;;;7.50;;
3849;SDS011;1940;51.052;13.678;2023-06-22T14:23:05;9.23;;;7.27;;
3849;SDS011;1940;51.052;13.678;2023-06-22T14:25:30;8.57;;;7.40;;
3849;SDS011;1940;51.052;13.678;2023-06-22T14:27:56;8.60;;;7.03;;
3849;SDS011;1940;51.052;13.678;2023-06-22T14:30:21;8.80;;;7.90;;
3849;SDS011;1940;51.052;13.678;2023-06-22T14:32:47;8.93;;;7.60;;
3849;SDS011;1940;51.052;13.678;2023-06-22T14:35:12;7.27;;;6.47;;
3849;SDS011;1940;51.052;13.678;2023-06-22T14:37:38;9.43;;;6.70;;
3849;SDS011;1940;51.052;13.678;2023-06-22T14:40:03;7.27;;;6.57;;
3849;SDS011;1940;51.052;13.678;2023-06-22T14:42:30;8.53;;;7.43;;
3849;SDS011;1940;51.052;13.678;2023-06-22T14:44:56;13.40;;;6.90;;
3849;SDS011;1940;51.052;13.678;2023-06-22T14:47:21;7.87;;;7.07;;
3849;SDS011;1940;51.052;13.678;2023-06-22T14:49:47;7.67;;;6.30;;
3849;SDS011;1940;51.052;13.678;2023-06-22T14:52:13;8.67;;;6.77;;
3849;SDS011;1940;51.052;13.678;2023-06-22T14:54:39;10.90;;;7.43;;
3849;SDS011;1940;51.052;13.678;2023-06-22T14:57:04;9.33;;;7.57;;
3849;SDS011;1940;51.052;13.678;2023-06-22T14:59:30;7.43;;;6.60;;
3849;SDS011;1940;51.052;13.678;2023-06-22T15:01:56;10.60;;;6.80;;
3849;SDS011;1940;51.052;13.678;2023-06-22T15:04:21;8.83;;;6.93;;
3849;SDS011;1940;51.052;13.678;2023-06-22T15:06:47;10.17;;;7.47;;
3849;SDS011;1940;51.052;13.678;2023-06-22T15:09:12;9.10;;;7.50;;
3849;SDS011;1940;51.052;13.678;2023-06-22T15:11:38;8.87;;;7.97;;
3849;SDS011;1940;51.052;13.678;2023-06-22T15:14:03;11.63;;;7.77;;
3849;SDS011;1940;51.052;13.678;2023-06-22T15:16:29;16.40;;;8.00;;
3849;SDS011;1940;51.052;13.678;2023-06-22T15:18:54;11.07;;;7.77;;
3849;SDS011;1940;51.052;13.678;2023-06-22T15:21:20;10.20;;;7.70;;
3849;SDS011;1940;51.052;13.678;2023-06-22T15:23:45;11.53;;;8.07;;
3849;SDS011;1940;51.052;13.678;2023-06-22T15:26:11;11.93;;;8.93;;
3849;SDS011;1940;51.052;13.678;2023-06-22T15:28:36;12.90;;;8.07;;
3849;SDS011;1940;51.052;13.678;2023-06-22T15:31:03;10.80;;;8.37;;
3849;SDS011;1940;51.052;13.678;2023-06-22T15:33:29;9.43;;;7.33;;
3849;SDS011;1940;51.052;13.678;2023-06-22T15:35:57;14.17;;;8.27;;
3849;SDS011;1940;51.052;13.678;2023-06-22T15:38:23;9.33;;;7.77;;
3849;SDS011;1940;51.052;13.678;2023-06-22T15:40:48;9.63;;;7.67;;
3849;SDS011;1940;51.052;13.678;2023-06-22T15:43:13;14.13;;;8.17;;
3849;SDS011;1940;51.052;13.678;2023-06-22T15:45:39;9.20;;;7.67;;
3849;SDS011;1940;51.052;13.678;2023-06-22T15:48:05;8.93;;;7.50;;
3849;SDS011;1940;51.052;13.678;2023-06-22T15:50:30;8.27;;;7.47;;
3849;SDS011;1940;51.052;13.678;2023-06-22T15:52:56;9.40;;;7.50;;
3849;SDS011;1940;51.052;13.678;2023-06-22T15:55:21;8.57;;;7.67;;
3849;SDS011;1940;51.052;13.678;2023-06-22T15:57:47;8.60;;;7.70;;
3849;SDS011;1940;51.052;13.678;2023-06-22T16:00:16;14.27;;;8.40;;
3849;SDS011;1940;51.052;13.678;2023-06-22T16:02:43;8.60;;;7.70;;
3849;SDS011;1940;51.052;13.678;2023-06-22T16:05:09;10.87;;;8.73;;
3849;SDS011;1940;51.052;13.678;2023-06-22T16:07:36;9.73;;;8.13;;
3849;SDS011;1940;51.052;13.678;2023-06-22T16:10:02;10.50;;;8.67;;
3849;SDS011;1940;51.052;13.678;2023-06-22T16:12:29;10.33;;;8.83;;
3849;SDS011;1940;51.052;13.678;2023-06-22T16:14:54;9.63;;;8.23;;
3849;SDS011;1940;51.052;13.678;2023-06-22T16:17:21;10.90;;;8.40;;
3849;SDS011;1940;51.052;13.678;2023-06-22T16:19:47;10.30;;;8.30;;
3849;SDS011;1940;51.052;13.678;2023-06-22T16:22:12;10.07;;;8.07;;
3849;SDS011;1940;51.052;13.678;2023-06-22T16:24:38;10.63;;;7.97;;
3849;SDS011;1940;51.052;13.678;2023-06-22T16:27:03;10.00;;;8.30;;
3849;SDS011;1940;51.052;13.678;2023-06-22T16:29:29;12.90;;;8.83;;
3849;SDS011;1940;51.052;13.678;2023-06-22T16:31:55;11.47;;;8.30;;
3849;SDS011;1940;51.052;13.678;2023-06-22T16:34:20;9.83;;;8.27;;
3849;SDS011;1940;51.052;13.678;2023-06-22T16:36:46;13.33;;;8.70;;